Time;durP1;ratioP1;P1;durP2;ratioP2;P2;SDS_P1;SDS_P2;PMS_P1;PMS_P2;Temp;Humidity;BMP_temperature;BMP_pressure;BME280_temperature;BME280_humidity;BME280_pressure;Samples;Min_cycle;Max_cycle;Signal;HPM_P1;HPM_P2
2021/05/22 00:03:12;;;;;;;3.35;3.05;;;;;;;14.52;79.08;99250.30;2744674;86;20208;-62
2021/05/22 00:07:14;;;;;;;3.22;2.92;;;;;;;14.55;79.05;99245.12;2745050;86;21647;-63
2021/05/22 00:11:16;;;;;;;3.75;3.00;;;;;;;14.55;79.05;99239.77;2741624;86;21094;-64
2021/05/22 00:15:20;;;;;;;3.70;3.15;;;;;;;14.54;79.09;99226.88;2741523;86;21129;-64
2021/05/22 00:19:22;;;;;;;4.42;4.03;;;;;;;14.57;79.20;99236.41;2721925;87;21117;-63
2021/05/22 00:23:25;;;;;;;5.12;2.83;;;;;;;14.55;79.21;99239.77;2697035;88;21105;-63
2021/05/22 00:27:27;;;;;;;4.03;3.02;;;;;;;14.56;79.25;99232.06;2722071;87;21081;-62
2021/05/22 00:31:28;;;;;;;4.10;2.60;;;;;;;14.56;79.22;99232.06;2697443;88;21122;-62
2021/05/22 00:35:31;;;;;;;4.83;3.40;;;;;;;14.54;78.75;99222.86;2722085;87;21132;-63
2021/05/22 00:39:33;;;;;;;3.25;2.58;;;;;;;14.45;78.71;99226.62;2741838;86;21094;-63
2021/05/22 00:43:34;;;;;;;4.72;2.70;;;;;;;14.39;78.87;99232.16;2722037;87;21113;-63
2021/05/22 00:47:40;;;;;;;3.58;2.77;;;;;;;14.36;78.75;99210.27;2697227;88;21630;-63
2021/05/22 00:51:43;;;;;;;4.33;2.33;;;;;;;14.32;78.79;99196.41;2691080;88;21073;-63
2021/05/22 00:55:46;;;;;;;3.12;2.08;;;;;;;14.28;78.80;99205.31;2723743;87;21634;-62
2021/05/22 00:59:48;;;;;;;3.83;2.77;;;;;;;14.24;78.94;99203.16;2724720;87;21096;-63
2021/05/22 01:03:52;;;;;;;4.03;2.77;;;;;;;14.21;79.08;99191.48;2724471;87;21606;-61
2021/05/22 01:07:55;;;;;;;3.25;2.95;;;;;;;14.16;79.19;99193.86;2724423;87;21077;-62
2021/05/22 01:12:01;;;;;;;3.85;2.85;;;;;;;14.10;79.36;99185.52;2724556;87;21120;-64
2021/05/22 01:16:05;;;;;;;2.50;2.30;;;;;;;14.06;79.64;99192.22;2724196;87;21109;-64
2021/05/22 01:20:25;;;;;;;4.03;3.20;;;;;;;14.03;79.70;99179.70;2724258;87;21089;-63
2021/05/22 01:24:30;;;;;;;2.47;2.27;;;;;;;14.02;79.66;99168.19;2724165;87;21081;-65
2021/05/22 01:28:34;;;;;;;2.75;2.47;;;;;;;14.00;79.60;99170.20;2724400;87;21065;-63
2021/05/22 01:32:35;;;;;;;3.75;3.35;;;;;;;13.99;79.58;99166.69;2723983;87;21718;-63
2021/05/22 01:36:37;;;;;;;3.47;2.52;;;;;;;13.98;79.43;99157.00;2724069;87;21427;-63
2021/05/22 01:40:39;;;;;;;2.65;2.37;;;;;;;13.97;79.46;99151.33;2724285;87;21081;-63
2021/05/22 01:44:45;;;;;;;3.85;2.62;;;;;;;13.98;79.31;99152.17;2723873;87;21097;-64
2021/05/22 01:48:48;;;;;;;2.35;2.02;;;;;;;13.97;79.21;99158.53;2723943;87;21076;-63
2021/05/22 01:52:55;;;;;;;2.45;1.75;;;;;;;13.97;79.18;99166.55;2724032;87;21172;-63
2021/05/22 01:56:58;;;;;;;5.42;2.98;;;;;;;13.98;79.20;99171.70;2712800;87;21101;-63
2021/05/22 02:01:00;;;;;;;2.75;2.00;;;;;;;13.96;79.20;99188.95;2713068;87;21085;-63
2021/05/22 02:05:05;;;;;;;2.75;2.55;;;;;;;13.95;79.35;99185.92;2712859;87;21121;-63
2021/05/22 02:09:07;;;;;;;3.87;2.12;;;;;;;14.00;79.17;99199.09;2712984;87;21093;-63
2021/05/22 02:13:09;;;;;;;2.65;2.08;;;;;;;13.99;79.24;99204.64;2712733;87;21422;-63
2021/05/22 02:17:14;;;;;;;2.70;2.05;;;;;;;14.01;79.28;99203.95;2713000;87;21093;-63
2021/05/22 02:21:16;;;;;;;2.30;2.10;;;;;;;14.03;79.21;99209.95;2712719;87;21122;-64
2021/05/22 02:25:19;;;;;;;9.05;3.17;;;;;;;14.03;79.15;99199.75;2712794;87;21128;-63
2021/05/22 02:29:21;;;;;;;2.75;2.30;;;;;;;13.99;79.13;99189.41;2712715;87;21106;-63
2021/05/22 02:33:26;;;;;;;2.35;1.90;;;;;;;13.99;79.00;99183.25;2712972;87;21130;-64
2021/05/22 02:38:02;;;;;;;3.12;2.00;;;;;;;13.93;79.14;99185.27;2713737;87;21061;-64
2021/05/22 02:42:07;;;;;;;2.58;2.33;;;;;;;13.91;79.25;99176.59;2713356;87;21089;-65
2021/05/22 02:46:48;;;;;;;3.08;2.17;;;;;;;13.89;79.29;99153.22;2744624;86;21086;-63
2021/05/22 02:50:51;;;;;;;3.10;2.00;;;;;;;13.85;79.38;99152.23;2744221;86;21078;-63
2021/05/22 03:00:17;;;;;;;2.10;1.70;;;;;;;13.80;79.85;99189.84;2745122;86;21129;-63
2021/05/22 03:04:54;;;;;;;4.20;2.35;;;;;;;13.81;79.90;99181.66;2741861;86;21030;-64
2021/05/22 03:08:57;;;;;;;3.47;2.90;;;;;;;13.84;79.96;99168.43;2742012;86;21058;-63
2021/05/22 03:12:58;;;;;;;4.58;2.47;;;;;;;13.88;79.97;99157.74;2722787;87;21090;-63
2021/05/22 03:17:37;;;;;;;1.57;1.47;;;;;;;13.92;79.93;99147.52;2742398;86;21077;-63
2021/05/22 03:21:39;;;;;;;2.65;1.75;;;;;;;13.97;79.41;99135.81;2722308;87;21065;-63
2021/05/22 03:26:18;;;;;;;2.67;1.95;;;;;;;14.02;78.81;99131.25;2698065;88;21130;-64
2021/05/22 03:30:22;;;;;;;2.50;2.30;;;;;;;14.05;78.40;99139.75;2722432;87;21108;-64
2021/05/22 03:34:23;;;;;;;1.92;1.80;;;;;;;14.06;78.56;99166.82;2741440;86;21188;-63
2021/05/22 03:38:25;;;;;;;3.25;2.10;;;;;;;14.07;78.69;99175.17;2741448;86;21078;-64
2021/05/22 03:42:28;;;;;;;26.73;6.40;;;;;;;14.08;79.09;99178.69;2722137;87;21061;-63
2021/05/22 03:46:30;;;;;;;3.83;2.00;;;;;;;14.08;79.03;99195.55;2745081;86;21700;-64
2021/05/22 03:50:32;;;;;;;2.60;2.33;;;;;;;14.09;79.19;99218.61;2744813;86;21101;-64
2021/05/22 03:54:34;;;;;;;2.15;1.95;;;;;;;14.09;79.58;99221.28;2745487;85;21108;-64
2021/05/22 03:58:36;;;;;;;2.00;1.57;;;;;;;14.12;79.68;99211.56;2751463;86;21121;-65
2021/05/22 04:02:38;;;;;;;2.60;2.12;;;;;;;14.22;79.56;99219.37;2751280;85;21073;-64
2021/05/22 04:06:40;;;;;;;7.80;2.67;;;;;;;14.27;79.46;99218.36;2751248;86;21137;-64
2021/05/22 04:10:41;;;;;;;3.85;2.08;;;;;;;14.27;78.95;99224.20;2751428;85;21106;-64
2021/05/22 04:14:44;;;;;;;2.00;1.75;;;;;;;14.22;79.01;99219.37;2718771;86;21101;-64
2021/05/22 04:18:46;;;;;;;4.70;2.02;;;;;;;14.24;79.01;99225.38;2706304;87;21109;-63
2021/05/22 04:22:48;;;;;;;2.22;1.72;;;;;;;14.30;79.16;99220.35;2706573;87;21109;-64
2021/05/22 04:26:49;;;;;;;4.20;2.30;;;;;;;14.36;79.23;99224.50;2706811;88;21101;-64
2021/05/22 04:30:51;;;;;;;2.87;2.15;;;;;;;14.40;79.10;99220.45;2707005;87;21078;-64
2021/05/22 04:34:53;;;;;;;3.42;2.25;;;;;;;14.46;79.09;99216.73;2706717;87;21682;-64
2021/05/22 04:38:54;;;;;;;2.85;2.37;;;;;;;14.49;79.14;99219.05;2706780;88;21099;-64
2021/05/22 04:42:56;;;;;;;2.12;1.92;;;;;;;14.60;79.41;99211.11;2706581;88;21666;-65
2021/05/22 04:46:58;;;;;;;2.50;2.30;;;;;;;14.66;79.40;99219.78;2706996;88;21122;-64
2021/05/22 04:50:59;;;;;;;3.08;2.17;;;;;;;14.69;79.65;99218.08;2706686;87;21072;-65
2021/05/22 04:55:01;;;;;;;3.67;2.45;;;;;;;14.73;79.87;99202.51;2698052;87;21034;-64
2021/05/22 04:59:04;;;;;;;3.65;2.08;;;;;;;14.81;79.74;99202.45;2670276;88;21084;-65
2021/05/22 05:03:06;;;;;;;3.83;2.35;;;;;;;14.88;79.67;99206.06;2669950;88;21100;-64
2021/05/22 05:07:07;;;;;;;3.92;2.75;;;;;;;14.94;79.42;99202.69;2670272;88;21029;-64
2021/05/22 05:11:09;;;;;;;5.37;3.83;;;;;;;14.98;79.79;99214.70;2670401;88;21132;-64
2021/05/22 05:15:12;;;;;;;5.17;2.95;;;;;;;15.04;80.24;99221.67;2670483;88;21102;-64
2021/05/22 05:19:14;;;;;;;4.35;3.77;;;;;;;15.14;80.29;99242.35;2670706;88;21141;-64
2021/05/22 05:23:15;;;;;;;3.83;3.08;;;;;;;15.21;79.72;99250.47;2670424;89;21045;-64
2021/05/22 05:27:20;;;;;;;4.58;2.75;;;;;;;15.27;79.50;99250.58;2670286;88;21073;-64
2021/05/22 05:31:22;;;;;;;3.90;2.75;;;;;;;15.36;79.94;99251.86;2670238;88;21056;-63
2021/05/22 05:35:24;;;;;;;5.05;3.22;;;;;;;15.46;79.91;99238.20;2670580;89;21112;-63
2021/05/22 05:39:25;;;;;;;3.12;2.87;;;;;;;15.48;79.66;99237.50;2670364;88;21108;-63
2021/05/22 05:43:27;;;;;;;3.22;2.80;;;;;;;15.47;80.18;99236.66;2670131;89;21625;-63
2021/05/22 05:47:30;;;;;;;8.03;2.95;;;;;;;15.50;79.76;99238.96;2670166;88;21144;-63
2021/05/22 05:51:32;;;;;;;3.17;2.50;;;;;;;15.53;79.29;99238.62;2670192;88;21104;-64
2021/05/22 05:55:34;;;;;;;2.10;1.90;;;;;;;15.56;78.89;99244.10;2670403;87;21157;-64
2021/05/22 05:59:36;;;;;;;2.87;1.92;;;;;;;15.56;78.10;99240.08;2670481;88;21132;-64
2021/05/22 06:03:38;;;;;;;1.55;1.45;;;;;;;15.59;78.01;99250.42;2670312;88;21621;-63
2021/05/22 06:07:40;;;;;;;2.05;1.57;;;;;;;15.63;77.09;99252.24;2670582;88;21080;-64
2021/05/22 06:11:42;;;;;;;2.02;1.80;;;;;;;15.64;76.74;99255.24;2670589;88;21088;-64
2021/05/22 06:15:49;;;;;;;2.70;1.52;;;;;;;15.55;76.31;99270.09;2670845;89;21108;-63
2021/05/22 06:19:50;;;;;;;2.62;1.00;;;;;;;15.48;76.10;99275.83;2670718;88;21116;-64
2021/05/22 06:23:56;;;;;;;1.70;1.05;;;;;;;15.43;75.59;99278.23;2670575;89;21120;-63
2021/05/22 06:27:58;;;;;;;;;;;;;;;15.38;75.38;99280.64;2673296;89;21052;-63
2021/05/22 06:31:59;;;;;;;1.02;0.85;;;;;;;15.30;76.03;99276.67;2670549;89;20507;-62
2021/05/22 06:36:02;;;;;;;0.95;0.93;;;;;;;15.32;76.85;99285.36;2670491;88;21092;-63
2021/05/22 06:40:05;;;;;;;2.00;1.30;;;;;;;15.35;77.24;99287.70;2670238;89;21103;-61
2021/05/22 06:44:16;;;;;;;1.00;0.95;;;;;;;15.39;77.57;99294.36;2669980;89;21073;-62
2021/05/22 06:48:14;;;;;;;4.78;1.20;;;;;;;15.45;77.96;99290.94;2669111;89;21132;-62
2021/05/22 06:52:16;;;;;;;2.90;1.05;;;;;;;15.45;77.50;99303.00;2670185;88;21125;-62
2021/05/22 06:56:18;;;;;;;1.77;1.40;;;;;;;15.47;77.27;99320.25;2684807;87;21097;-63
2021/05/22 07:00:21;;;;;;;1.17;0.95;;;;;;;15.39;76.93;99308.58;2707122;88;21093;-62
2021/05/22 07:04:22;;;;;;;0.75;0.75;;;;;;;15.27;77.00;99306.02;2706884;87;21152;-61
2021/05/22 07:08:24;;;;;;;3.10;1.25;;;;;;;15.16;78.28;99317.15;2706984;87;21085;-62
2021/05/22 07:12:25;;;;;;;3.22;0.75;;;;;;;15.12;79.62;99312.65;2706519;88;21101;-62
2021/05/22 07:16:27;;;;;;;1.10;0.90;;;;;;;15.11;79.54;99310.98;2741907;86;21111;-62
2021/05/22 07:20:29;;;;;;;1.65;1.02;;;;;;;15.08;79.96;99305.98;2741675;86;21115;-63
2021/05/22 07:24:32;;;;;;;2.20;1.45;;;;;;;15.05;80.60;99319.75;2741128;86;21692;-62
2021/05/22 07:28:34;;;;;;;1.70;1.42;;;;;;;15.04;81.02;99314.06;2741394;86;21103;-63
2021/05/22 07:32:40;;;;;;;2.20;1.00;;;;;;;15.10;82.17;99306.64;2741116;86;21738;-61
2021/05/22 07:36:42;;;;;;;2.37;0.55;;;;;;;15.23;82.70;99312.23;2741390;86;21541;-63
2021/05/22 07:40:43;;;;;;;0.40;0.40;;;;;;;15.30;81.31;99302.13;2741711;86;21084;-62
2021/05/22 07:44:45;;;;;;;0.30;0.20;;;;;;;15.34;80.82;99294.89;2741606;86;21111;-63
2021/05/22 07:48:47;;;;;;;0.20;0.20;;;;;;;15.40;80.22;99293.34;2741639;86;21079;-62
2021/05/22 07:52:49;;;;;;;1.22;0.40;;;;;;;15.45;79.81;99293.63;2741649;86;21147;-61
2021/05/22 07:56:50;;;;;;;0.88;0.57;;;;;;;15.45;79.18;99300.84;2722049;86;21691;-61
2021/05/22 08:00:52;;;;;;;0.68;0.30;;;;;;;15.41;79.14;99278.93;2700215;88;21109;-61
2021/05/22 08:04:54;;;;;;;0.50;0.50;;;;;;;15.42;79.00;99293.47;2699850;88;21122;-61
2021/05/22 08:08:56;;;;;;;0.80;0.60;;;;;;;15.51;79.01;99304.12;2699985;88;21098;-61
2021/05/22 08:12:57;;;;;;;1.00;0.50;;;;;;;15.59;78.61;99303.22;2699775;88;21154;-61
2021/05/22 08:17:00;;;;;;;0.62;0.60;;;;;;;15.62;78.56;99298.30;2699987;88;21074;-64
2021/05/22 08:21:02;;;;;;;3.08;1.15;;;;;;;15.68;79.25;99303.45;2699706;88;21122;-62
2021/05/22 08:25:07;;;;;;;4.15;1.05;;;;;;;15.70;77.20;99308.11;2699611;88;21129;-62
2021/05/22 08:29:09;;;;;;;1.47;1.20;;;;;;;15.71;77.34;99311.12;2699705;88;21150;-61
2021/05/22 08:33:11;;;;;;;1.27;0.85;;;;;;;15.65;76.22;99308.69;2707989;86;21110;-61
2021/05/22 08:37:13;;;;;;;1.60;1.15;;;;;;;15.52;75.82;99309.81;2744065;86;21619;-62
2021/05/22 08:41:17;;;;;;;1.42;1.05;;;;;;;15.41;76.91;99299.03;2743482;86;21555;-61
2021/05/22 08:45:23;;;;;;;1.85;1.17;;;;;;;15.48;77.01;99305.31;2743557;86;21086;-61
2021/05/22 08:49:25;;;;;;;1.45;0.90;;;;;;;15.53;76.93;99306.96;2743571;86;21086;-62
2021/05/22 08:53:26;;;;;;;1.75;1.20;;;;;;;15.65;77.04;99297.12;2743426;86;21078;-61
2021/05/22 08:57:29;;;;;;;1.72;0.57;;;;;;;15.82;76.57;99297.77;2711630;86;21102;-61
2021/05/22 09:01:30;;;;;;;1.85;0.95;;;;;;;16.00;75.54;99284.03;2695938;88;21124;-61
2021/05/22 09:05:33;;;;;;;0.90;0.78;;;;;;;16.16;75.21;99267.42;2696495;88;21578;-62
2021/05/22 09:09:43;;;;;;;1.47;0.85;;;;;;;16.35;74.10;99280.25;2696702;88;21070;-61
2021/05/22 09:13:49;;;;;;;2.37;0.82;;;;;;;16.53;75.03;99282.50;2696621;88;21125;-62
2021/05/22 09:18:00;;;;;;;2.13;1.60;;;;;;;16.69;74.87;99279.27;2674751;88;21584;-62
2021/05/22 09:22:24;;;;;;;1.47;0.93;;;;;;;16.90;73.04;99281.64;2696779;88;21038;-62
2021/05/22 09:26:32;;;;;;;1.00;0.95;;;;;;;17.37;73.06;99280.73;2696963;88;21157;-61
2021/05/22 09:30:38;;;;;;;1.27;0.57;;;;;;;17.92;70.97;99292.17;2678532;88;21137;-63
2021/05/22 09:34:40;;;;;;;1.95;0.70;;;;;;;18.49;68.25;99294.73;2655447;89;21726;-64
2021/05/22 09:38:52;;;;;;;0.90;0.30;;;;;;;18.58;65.59;99296.20;2679392;88;21075;-61
2021/05/22 09:42:56;;;;;;;0.93;0.62;;;;;;;18.49;64.44;99299.58;2654870;89;21081;-61
2021/05/22 09:47:02;;;;;;;1.35;0.60;;;;;;;18.39;65.32;99293.77;2678755;88;21117;-61
2021/05/22 09:51:07;;;;;;;0.70;0.40;;;;;;;18.31;64.88;99290.73;2702327;88;21125;-61
2021/05/22 09:55:10;;;;;;;0.65;0.57;;;;;;;18.43;67.02;99282.91;2697787;87;21110;-61
2021/05/22 09:59:14;;;;;;;1.85;0.75;;;;;;;18.94;67.74;99273.48;2714074;87;21053;-61
2021/05/22 10:03:24;;;;;;;2.45;1.10;;;;;;;19.38;64.89;99267.70;2716123;87;21124;-61
2021/05/22 10:07:34;;;;;;;1.65;0.47;;;;;;;19.62;63.20;99266.73;2716044;87;21697;-61
2021/05/22 10:12:06;;;;;;;2.15;0.90;;;;;;;19.62;60.56;99265.39;2715538;87;21645;-62
2021/05/22 10:16:06;;;;;;;1.98;0.85;;;;;;;19.74;64.71;99256.97;2714630;87;21073;-62
2021/05/22 10:20:12;;;;;;;1.12;0.80;;;;;;;19.76;59.63;99257.58;2716784;87;21145;-62
2021/05/22 10:24:16;;;;;;;0.93;0.40;;;;;;;19.51;60.96;99256.07;2707645;88;21054;-61
2021/05/22 10:28:18;;;;;;;0.40;0.37;;;;;;;19.54;62.23;99259.19;2708189;87;21137;-62
2021/05/22 10:32:25;;;;;;;2.15;0.90;;;;;;;19.65;60.35;99255.52;2708688;87;21147;-62
2021/05/22 10:36:54;;;;;;;4.65;0.50;;;;;;;19.61;59.82;99254.29;2708084;88;21666;-61
2021/05/22 10:40:56;;;;;;;1.52;0.88;;;;;;;19.55;59.08;99251.41;2707352;87;21595;-65
2021/05/22 10:45:31;;;;;;;2.10;0.80;;;;;;;19.48;61.83;99253.30;2708316;87;21145;-64
2021/05/22 10:50:05;;;;;;;1.92;0.93;;;;;;;19.71;60.52;99265.48;2707894;87;21065;-63
2021/05/22 10:54:17;;;;;;;2.55;1.25;;;;;;;19.88;58.60;99266.39;2750785;86;21105;-62
2021/05/22 10:58:19;;;;;;;1.82;1.10;;;;;;;19.74;59.19;99273.66;2729029;85;21617;-63
2021/05/22 11:02:53;;;;;;;1.67;1.05;;;;;;;19.73;60.18;99280.94;2713274;87;21105;-63
2021/05/22 11:07:01;;;;;;;1.17;0.50;;;;;;;19.32;59.79;99280.68;2712607;87;21108;-63
2021/05/22 11:11:03;;;;;;;4.67;0.98;;;;;;;18.80;59.83;99274.48;2712611;87;21609;-64
2021/05/22 11:15:06;;;;;;;8.65;1.60;;;;;;;18.65;59.70;99270.10;2713079;87;21109;-63
2021/05/22 11:19:08;;;;;;;1.87;0.90;;;;;;;18.69;62.16;99278.61;2688985;87;21101;-63
2021/05/22 11:23:10;;;;;;;1.17;1.02;;;;;;;18.82;61.50;99275.95;2712912;87;21057;-62
2021/05/22 11:27:13;;;;;;;5.83;1.40;;;;;;;19.02;60.75;99275.18;2713594;87;21069;-63
2021/05/22 11:31:20;;;;;;;1.67;0.78;;;;;;;19.23;62.46;99276.83;2713796;87;21065;-63
2021/05/22 11:35:31;;;;;;;1.15;0.88;;;;;;;19.50;60.82;99270.09;2710174;87;21147;-63
2021/05/22 11:39:45;;;;;;;4.37;1.17;;;;;;;19.50;57.18;99267.39;2713909;87;21104;-63
2021/05/22 11:43:47;;;;;;;2.02;0.80;;;;;;;19.32;57.07;99269.36;2713827;87;21065;-63
2021/05/22 11:47:49;;;;;;;1.90;0.88;;;;;;;19.19;56.38;99257.26;2713843;87;21096;-63
2021/05/22 11:51:51;;;;;;;2.65;0.85;;;;;;;19.14;56.11;99261.91;2713994;87;21086;-63
2021/05/22 11:55:59;;;;;;;4.55;1.32;;;;;;;19.40;56.66;99245.41;2713710;87;21072;-62
2021/05/22 12:00:01;;;;;;;1.80;1.10;;;;;;;19.84;56.68;99247.89;2749401;85;21070;-63
2021/05/22 12:04:12;;;;;;;5.20;0.70;;;;;;;19.90;54.86;99236.78;2752247;86;21121;-62
2021/05/22 12:08:23;;;;;;;1.30;0.80;;;;;;;20.01;56.28;99246.11;2752525;86;21094;-62
2021/05/22 12:12:34;;;;;;;3.33;1.42;;;;;;;20.32;55.65;99241.84;2752313;85;21093;-64
2021/05/22 12:16:34;;;;;;;1.02;0.90;;;;;;;20.63;54.62;99223.98;2751507;86;21129;-65
2021/05/22 12:20:53;;;;;;;3.30;1.12;;;;;;;20.80;54.10;99228.89;2752733;86;21077;-64
2021/05/22 12:24:57;;;;;;;1.20;0.55;;;;;;;21.07;56.96;99230.86;2752890;85;21102;-62
2021/05/22 12:29:00;;;;;;;2.40;0.70;;;;;;;21.01;52.55;99230.91;2752479;86;21086;-65
2021/05/22 12:33:16;;;;;;;0.80;0.40;;;;;;;20.95;54.23;99228.59;2753967;86;21125;-65
2021/05/22 12:37:19;;;;;;;;;;;;;;;21.10;54.38;99229.06;2756668;85;21634;-66
2021/05/22 12:41:37;;;;;;;1.10;0.35;;;;;;;21.38;53.49;99225.08;2750436;85;20176;-63
2021/05/22 12:45:42;;;;;;;2.52;0.68;;;;;;;21.61;51.23;99222.25;2753072;85;21089;-63
2021/05/22 12:49:55;;;;;;;2.22;0.82;;;;;;;21.65;50.73;99219.96;2753060;86;21154;-63
2021/05/22 12:54:24;;;;;;;6.23;1.20;;;;;;;21.54;49.17;99210.14;2753538;86;21065;-63
2021/05/22 12:58:26;;;;;;;0.55;0.40;;;;;;;21.14;49.72;99224.05;2753189;85;21102;-63
2021/05/22 13:02:33;;;;;;;5.80;0.40;;;;;;;20.88;51.50;99229.98;2753154;85;21098;-63
2021/05/22 13:06:36;;;;;;;0.90;0.70;;;;;;;20.72;51.44;99221.84;2752788;86;21085;-63
2021/05/22 13:10:41;;;;;;;0.98;0.70;;;;;;;20.59;52.50;99237.63;2753032;86;21106;-62
2021/05/22 13:14:51;;;;;;;0.88;0.53;;;;;;;20.22;51.42;99235.55;2752405;86;21101;-63
2021/05/22 13:18:56;;;;;;;1.55;1.00;;;;;;;19.86;49.48;99241.48;2752117;86;21137;-62
2021/05/22 13:23:24;;;;;;;1.70;0.60;;;;;;;20.00;51.04;99239.59;2752281;86;21121;-63
2021/05/22 13:27:27;;;;;;;1.05;0.55;;;;;;;20.19;48.53;99232.44;2713474;86;21639;-63
2021/05/22 13:31:44;;;;;;;1.62;0.60;;;;;;;20.23;48.22;99235.01;2708307;88;21133;-63
2021/05/22 13:35:47;;;;;;;1.62;0.95;;;;;;;20.44;49.88;99231.17;2708504;88;21093;-63
2021/05/22 13:39:49;;;;;;;6.10;1.30;;;;;;;20.76;49.53;99227.64;2693225;86;21062;-63
2021/05/22 13:43:50;;;;;;;2.80;0.90;;;;;;;20.95;50.51;99225.89;2682548;87;21131;-63
2021/05/22 13:47:53;;;;;;;1.10;0.68;;;;;;;21.10;49.05;99225.55;2682837;87;21099;-63
2021/05/22 13:51:55;;;;;;;1.55;0.70;;;;;;;21.31;49.66;99229.71;2682525;87;21099;-63
2021/05/22 13:55:57;;;;;;;10.00;0.65;;;;;;;21.50;48.18;99229.23;2681956;88;21115;-63
2021/05/22 14:00:03;;;;;;;4.00;0.50;;;;;;;21.58;48.16;99227.27;2682439;88;21091;-63
2021/05/22 14:04:06;;;;;;;6.00;0.88;;;;;;;21.52;47.78;99227.12;2682379;87;21119;-63
2021/05/22 14:08:08;;;;;;;0.57;0.57;;;;;;;21.45;48.82;99233.14;2682640;88;21138;-63
2021/05/22 14:12:11;;;;;;;1.15;0.42;;;;;;;21.44;50.23;99230.14;2682918;88;21510;-63
2021/05/22 14:16:12;;;;;;;1.98;0.72;;;;;;;21.55;47.83;99226.67;2682857;88;21126;-62
2021/05/22 14:20:16;;;;;;;1.50;0.62;;;;;;;21.53;47.76;99219.31;2682802;88;21039;-63
2021/05/22 14:24:19;;;;;;;1.55;0.50;;;;;;;21.57;45.79;99220.20;2682559;88;21099;-62
2021/05/22 14:28:21;;;;;;;1.57;0.47;;;;;;;21.10;45.19;99229.06;2682656;88;21079;-62
2021/05/22 14:32:23;;;;;;;1.07;0.70;;;;;;;20.86;46.34;99238.84;2682610;88;21348;-62
2021/05/22 14:36:26;;;;;;;1.35;0.30;;;;;;;21.03;46.49;99239.63;2682572;88;21088;-63
2021/05/22 14:40:27;;;;;;;2.33;0.62;;;;;;;21.08;45.70;99238.47;2682647;88;21134;-62
2021/05/22 14:44:29;;;;;;;2.10;0.65;;;;;;;20.68;47.41;99244.44;2695645;86;21056;-64
2021/05/22 14:48:31;;;;;;;2.98;0.72;;;;;;;20.09;47.26;99257.20;2712611;86;21096;-64
2021/05/22 14:52:33;;;;;;;3.12;1.40;;;;;;;19.67;48.24;99262.91;2712163;86;21087;-65
2021/05/22 14:56:36;;;;;;;2.70;1.05;;;;;;;19.57;48.95;99266.55;2711826;86;21071;-64
2021/05/22 15:00:38;;;;;;;2.10;0.80;;;;;;;19.50;46.94;99272.78;2712043;86;21127;-64
2021/05/22 15:04:40;;;;;;;2.77;0.80;;;;;;;19.39;47.28;99273.41;2711973;86;21142;-65
2021/05/22 15:08:42;;;;;;;3.20;0.75;;;;;;;19.15;48.92;99298.61;2711662;87;21132;-64
2021/05/22 15:12:44;;;;;;;1.65;0.62;;;;;;;18.65;48.74;99316.42;2711459;87;21055;-62
2021/05/22 15:16:49;;;;;;;2.95;0.60;;;;;;;18.06;49.86;99328.89;2711342;86;21088;-64
2021/05/22 15:20:51;;;;;;;2.37;0.40;;;;;;;17.53;50.55;99323.46;2735404;86;21085;-63
2021/05/22 15:24:57;;;;;;;2.17;0.88;;;;;;;17.13;50.21;99347.31;2786891;85;21087;-63
2021/05/22 15:28:59;;;;;;;2.80;0.82;;;;;;;16.91;52.66;99370.09;2787009;85;21107;-63
2021/05/22 15:33:02;;;;;;;0.62;0.30;;;;;;;16.74;54.42;99374.03;2787034;85;21187;-63
2021/05/22 15:37:04;;;;;;;1.47;0.57;;;;;;;16.69;54.85;99380.77;2787084;85;21135;-63
2021/05/22 15:41:09;;;;;;;3.55;0.75;;;;;;;16.75;54.45;99391.80;2787007;85;21095;-63
2021/05/22 15:45:13;;;;;;;0.37;0.37;;;;;;;16.73;55.25;99396.53;2786977;85;21063;-63
2021/05/22 16:06:02;;;;;;;0.85;0.20;;;;;;;16.50;54.81;99401.48;2741324;86;21143;-63
2021/05/22 16:10:06;;;;;;;1.75;0.50;;;;;;;16.31;55.88;99392.16;2741513;86;21139;-64
2021/05/22 16:14:10;;;;;;;2.30;1.10;;;;;;;16.29;58.11;99378.92;2741645;85;21143;-64
2021/05/22 16:18:12;;;;;;;0.35;0.20;;;;;;;16.49;55.61;99371.64;2741498;86;21135;-63
2021/05/22 16:22:14;;;;;;;0.90;0.33;;;;;;;16.58;54.95;99366.51;2741916;86;21111;-63
2021/05/22 16:26:17;;;;;;;0.33;0.30;;;;;;;16.63;54.37;99367.30;2741443;86;21107;-63
2021/05/22 16:30:21;;;;;;;0.60;0.55;;;;;;;16.85;55.24;99348.01;2742050;86;21115;-63
2021/05/22 16:34:23;;;;;;;2.27;0.45;;;;;;;17.32;55.40;99341.78;2742057;86;21122;-63
2021/05/22 16:38:25;;;;;;;7.10;0.50;;;;;;;17.76;51.97;99342.55;2742219;86;21048;-63
2021/05/22 16:42:27;;;;;;;4.33;0.88;;;;;;;18.04;51.50;99352.48;2742222;86;21080;-64
2021/05/22 16:46:30;;;;;;;1.15;0.50;;;;;;;18.13;50.73;99355.34;2742802;86;21147;-63
2021/05/22 16:50:32;;;;;;;2.37;0.70;;;;;;;18.17;50.55;99357.62;2742400;86;21134;-63
2021/05/22 16:54:35;;;;;;;0.53;0.42;;;;;;;18.13;51.47;99366.11;2742244;86;21641;-63
2021/05/22 16:58:39;;;;;;;1.42;0.75;;;;;;;18.05;52.56;99368.94;2734456;86;21170;-63
2021/05/22 17:02:44;;;;;;;4.60;1.17;;;;;;;17.98;53.88;99369.39;2701143;88;21078;-63
2021/05/22 17:06:47;;;;;;;1.82;0.53;;;;;;;17.91;54.42;99379.28;2701019;88;21121;-63
2021/05/22 17:10:49;;;;;;;1.45;0.82;;;;;;;17.83;54.79;99373.53;2701226;88;21109;-63
2021/05/22 17:14:51;;;;;;;2.90;1.10;;;;;;;17.77;55.35;99382.36;2701407;88;21094;-63
2021/05/22 17:18:53;;;;;;;3.17;1.25;;;;;;;17.65;56.72;99390.14;2701040;88;21074;-63
2021/05/22 17:22:56;;;;;;;3.70;1.00;;;;;;;17.51;56.73;99392.73;2701240;88;21153;-63
2021/05/22 17:26:58;;;;;;;3.02;1.70;;;;;;;17.31;57.01;99402.47;2700919;88;22073;-64
2021/05/22 17:31:01;;;;;;;2.05;1.20;;;;;;;17.04;57.45;99403.52;2700372;88;28213;-63
2021/05/22 17:35:03;;;;;;;3.80;1.40;;;;;;;16.84;58.25;99414.34;2701154;88;21702;-64
2021/05/22 17:39:07;;;;;;;2.83;1.95;;;;;;;16.66;59.97;99422.77;2700222;88;21149;-64
2021/05/22 17:43:09;;;;;;;4.00;1.60;;;;;;;16.46;61.50;99423.86;2700668;88;21603;-64
2021/05/22 17:47:11;;;;;;;1.82;1.17;;;;;;;16.25;62.89;99426.78;2700153;88;21106;-63
2021/05/22 17:51:16;;;;;;;2.80;1.35;;;;;;;16.07;64.36;99433.00;2701102;88;21066;-64
2021/05/22 17:55:21;;;;;;;2.55;0.88;;;;;;;15.95;65.55;99448.70;2750479;86;21070;-63
2021/05/22 17:59:22;;;;;;;4.60;1.27;;;;;;;15.90;66.40;99467.16;2708073;87;21107;-63
2021/05/22 18:03:24;;;;;;;1.57;1.30;;;;;;;15.77;67.52;99482.00;2704990;87;21091;-62
2021/05/22 18:07:27;;;;;;;9.25;1.40;;;;;;;15.55;67.65;99497.06;2704961;88;21091;-63
2021/05/22 18:11:28;;;;;;;3.65;1.75;;;;;;;15.45;62.18;99512.03;2705082;87;21095;-63
2021/05/22 18:15:31;;;;;;;2.05;1.27;;;;;;;15.32;63.99;99506.40;2704958;88;21147;-63
2021/05/22 18:19:34;;;;;;;2.10;1.57;;;;;;;15.07;64.65;99502.02;2705049;88;21640;-66
2021/05/22 18:23:37;;;;;;;2.87;1.30;;;;;;;14.84;64.95;99489.89;2705040;87;21118;-66
2021/05/22 18:27:40;;;;;;;2.90;1.12;;;;;;;14.71;65.51;99481.08;2704940;88;21123;-66
2021/05/22 18:31:42;;;;;;;2.90;2.12;;;;;;;14.68;65.94;99463.48;2704698;87;21091;-66
2021/05/22 18:35:44;;;;;;;4.45;2.10;;;;;;;14.68;65.99;99463.48;2704670;88;21100;-66
2021/05/22 18:39:46;;;;;;;5.65;3.50;;;;;;;14.63;66.22;99471.20;2704816;88;21115;-66
2021/05/22 18:43:47;;;;;;;12.95;4.62;;;;;;;14.60;65.85;99477.39;2705053;86;21135;-66
2021/05/22 18:47:51;;;;;;;2.70;1.72;;;;;;;14.58;66.79;99492.30;2704884;87;21585;-66
2021/05/22 18:51:53;;;;;;;2.72;1.22;;;;;;;14.51;67.99;99499.32;2704829;88;21103;-67
2021/05/22 18:55:55;;;;;;;2.05;0.90;;;;;;;14.47;68.43;99511.38;2705195;88;21601;-66
2021/05/22 18:59:57;;;;;;;3.02;1.00;;;;;;;14.48;68.96;99513.05;2705069;86;21076;-66
2021/05/22 19:03:59;;;;;;;3.87;1.35;;;;;;;14.50;69.12;99517.72;2704792;88;21142;-66
2021/05/22 19:08:01;;;;;;;2.83;1.27;;;;;;;14.47;69.06;99518.92;2704942;87;21165;-65
2021/05/22 19:12:04;;;;;;;3.20;1.50;;;;;;;14.41;69.25;99531.13;2705099;87;21932;-65
2021/05/22 19:16:07;;;;;;;3.33;1.60;;;;;;;14.39;68.74;99542.99;2704848;88;21090;-66
2021/05/22 19:20:12;;;;;;;2.65;0.93;;;;;;;14.35;67.85;99547.02;2705105;88;21087;-66
2021/05/22 19:24:17;;;;;;;2.20;1.13;;;;;;;14.35;67.20;99553.70;2705175;88;21098;-66
2021/05/22 19:28:19;;;;;;;2.67;1.45;;;;;;;14.32;66.96;99559.39;2705215;86;21079;-65
2021/05/22 19:32:21;;;;;;;5.42;1.72;;;;;;;14.26;66.91;99560.90;2704878;88;21127;-65
2021/05/22 19:36:25;;;;;;;2.70;1.77;;;;;;;14.25;66.44;99556.55;2704863;88;21099;-66